sensor_id;sensor_type;location;lat;lon;timestamp;temperature;humidity
22337;DHT22;14992;50.844;4.418;2023-11-22T00:01:10;7.20;99.90
22337;DHT22;14992;50.844;4.418;2023-11-22T00:03:39;7.20;99.90
22337;DHT22;14992;50.844;4.418;2023-11-22T00:06:08;7.20;99.90
22337;DHT22;14992;50.844;4.418;2023-11-22T00:08:38;7.10;99.90
22337;DHT22;14992;50.844;4.418;2023-11-22T00:11:07;7.20;99.90
22337;DHT22;14992;50.844;4.418;2023-11-22T00:13:36;7.20;99.90
22337;DHT22;14992;50.844;4.418;2023-11-22T00:16:05;7.20;99.90
22337;DHT22;14992;50.844;4.418;2023-11-22T00:18:36;7.20;99.90
22337;DHT22;14992;50.844;4.418;2023-11-22T00:21:06;7.30;99.90
22337;DHT22;14992;50.844;4.418;2023-11-22T00:23:35;7.30;99.90
22337;DHT22;14992;50.844;4.418;2023-11-22T00:26:05;7.30;99.90
22337;DHT22;14992;50.844;4.418;2023-11-22T00:28:34;7.30;99.90
22337;DHT22;14992;50.844;4.418;2023-11-22T00:31:03;7.20;99.90
22337;DHT22;14992;50.844;4.418;2023-11-22T00:33:31;7.20;99.90
22337;DHT22;14992;50.844;4.418;2023-11-22T00:36:02;7.20;99.90
22337;DHT22;14992;50.844;4.418;2023-11-22T00:38:32;7.20;99.90
22337;DHT22;14992;50.844;4.418;2023-11-22T00:41:05;7.30;99.90
22337;DHT22;14992;50.844;4.418;2023-11-22T00:43:35;7.30;99.90
22337;DHT22;14992;50.844;4.418;2023-11-22T00:46:04;7.20;99.90
22337;DHT22;14992;50.844;4.418;2023-11-22T00:48:33;7.10;99.90
22337;DHT22;14992;50.844;4.418;2023-11-22T00:51:02;7.20;99.90
22337;DHT22;14992;50.844;4.418;2023-11-22T00:53:35;7.30;99.90
22337;DHT22;14992;50.844;4.418;2023-11-22T00:56:06;7.40;99.90
22337;DHT22;14992;50.844;4.418;2023-11-22T00:58:35;7.30;99.90
22337;DHT22;14992;50.844;4.418;2023-11-22T01:01:04;7.40;99.90
22337;DHT22;14992;50.844;4.418;2023-11-22T01:03:34;7.30;99.90
22337;DHT22;14992;50.844;4.418;2023-11-22T01:06:03;7.20;99.90
22337;DHT22;14992;50.844;4.418;2023-11-22T01:08:33;7.10;99.90
22337;DHT22;14992;50.844;4.418;2023-11-22T01:11:05;7.10;99.90
22337;DHT22;14992;50.844;4.418;2023-11-22T01:13:35;7.20;99.90
22337;DHT22;14992;50.844;4.418;2023-11-22T01:16:10;7.20;99.90
22337;DHT22;14992;50.844;4.418;2023-11-22T01:18:40;7.10;99.90
22337;DHT22;14992;50.844;4.418;2023-11-22T01:21:12;7.10;99.90
22337;DHT22;14992;50.844;4.418;2023-11-22T01:23:41;7.00;99.90
22337;DHT22;14992;50.844;4.418;2023-11-22T01:26:11;7.00;99.90
22337;DHT22;14992;50.844;4.418;2023-11-22T01:28:41;7.00;99.90
22337;DHT22;14992;50.844;4.418;2023-11-22T01:31:12;7.00;99.90
22337;DHT22;14992;50.844;4.418;2023-11-22T01:33:41;6.90;99.90
22337;DHT22;14992;50.844;4.418;2023-11-22T01:36:10;7.00;99.90
22337;DHT22;14992;50.844;4.418;2023-11-22T01:38:39;7.00;99.90
22337;DHT22;14992;50.844;4.418;2023-11-22T01:41:08;7.10;99.90
22337;DHT22;14992;50.844;4.418;2023-11-22T01:43:39;7.20;99.90
22337;DHT22;14992;50.844;4.418;2023-11-22T01:46:09;7.30;99.90
22337;DHT22;14992;50.844;4.418;2023-11-22T01:48:39;7.30;99.90
22337;DHT22;14992;50.844;4.418;2023-11-22T01:51:08;7.30;99.90
22337;DHT22;14992;50.844;4.418;2023-11-22T01:53:37;7.40;99.90
22337;DHT22;14992;50.844;4.418;2023-11-22T01:56:07;7.40;99.90
22337;DHT22;14992;50.844;4.418;2023-11-22T01:58:38;7.40;99.90
22337;DHT22;14992;50.844;4.418;2023-11-22T02:01:08;7.50;99.90
22337;DHT22;14992;50.844;4.418;2023-11-22T02:03:38;7.40;99.90
22337;DHT22;14992;50.844;4.418;2023-11-22T02:06:08;7.40;99.90
22337;DHT22;14992;50.844;4.418;2023-11-22T02:08:37;7.50;99.90
22337;DHT22;14992;50.844;4.418;2023-11-22T02:11:07;7.40;99.90
22337;DHT22;14992;50.844;4.418;2023-11-22T02:13:35;7.30;99.90
22337;DHT22;14992;50.844;4.418;2023-11-22T02:16:06;7.20;99.90
22337;DHT22;14992;50.844;4.418;2023-11-22T02:18:35;7.20;99.90
22337;DHT22;14992;50.844;4.418;2023-11-22T02:21:06;7.30;99.90
22337;DHT22;14992;50.844;4.418;2023-11-22T02:23:36;7.30;99.90
22337;DHT22;14992;50.844;4.418;2023-11-22T02:26:05;7.20;99.90
22337;DHT22;14992;50.844;4.418;2023-11-22T02:28:34;7.20;99.90
22337;DHT22;14992;50.844;4.418;2023-11-22T02:31:02;7.20;99.90
22337;DHT22;14992;50.844;4.418;2023-11-22T02:33:31;7.20;99.90
22337;DHT22;14992;50.844;4.418;2023-11-22T02:36:01;7.40;99.90
22337;DHT22;14992;50.844;4.418;2023-11-22T02:38:29;7.50;99.90
22337;DHT22;14992;50.844;4.418;2023-11-22T02:41:00;7.50;99.90
22337;DHT22;14992;50.844;4.418;2023-11-22T02:43:28;7.40;99.90
22337;DHT22;14992;50.844;4.418;2023-11-22T02:45:57;7.40;99.90
22337;DHT22;14992;50.844;4.418;2023-11-22T02:48:26;7.20;99.90
22337;DHT22;14992;50.844;4.418;2023-11-22T02:50:55;7.20;99.90
22337;DHT22;14992;50.844;4.418;2023-11-22T02:53:24;7.20;99.90
22337;DHT22;14992;50.844;4.418;2023-11-22T02:55:53;7.30;99.90
22337;DHT22;14992;50.844;4.418;2023-11-22T02:58:24;7.40;99.90
22337;DHT22;14992;50.844;4.418;2023-11-22T03:00:53;7.10;99.90
22337;DHT22;14992;50.844;4.418;2023-11-22T03:03:24;7.00;99.90
22337;DHT22;14992;50.844;4.418;2023-11-22T03:05:53;7.10;99.90
22337;DHT22;14992;50.844;4.418;2023-11-22T03:08:22;7.10;99.90
22337;DHT22;14992;50.844;4.418;2023-11-22T03:10:51;7.20;99.90
22337;DHT22;14992;50.844;4.418;2023-11-22T03:13:20;7.20;99.90
22337;DHT22;14992;50.844;4.418;2023-11-22T03:15:50;7.30;99.90
22337;DHT22;14992;50.844;4.418;2023-11-22T03:18:19;7.40;99.90
22337;DHT22;14992;50.844;4.418;2023-11-22T03:20:49;7.50;99.90
22337;DHT22;14992;50.844;4.418;2023-11-22T03:23:21;7.60;99.90
22337;DHT22;14992;50.844;4.418;2023-11-22T03:25:50;7.40;99.90
22337;DHT22;14992;50.844;4.418;2023-11-22T03:28:19;7.40;99.90
22337;DHT22;14992;50.844;4.418;2023-11-22T03:30:51;7.40;99.90
22337;DHT22;14992;50.844;4.418;2023-11-22T03:33:20;7.40;99.90
22337;DHT22;14992;50.844;4.418;2023-11-22T03:35:49;7.50;99.90
22337;DHT22;14992;50.844;4.418;2023-11-22T03:38:18;7.50;99.90
22337;DHT22;14992;50.844;4.418;2023-11-22T03:40:48;7.40;99.90
22337;DHT22;14992;50.844;4.418;2023-11-22T03:43:17;7.40;99.90
22337;DHT22;14992;50.844;4.418;2023-11-22T03:45:46;7.50;99.90
22337;DHT22;14992;50.844;4.418;2023-11-22T03:48:16;7.40;99.90
22337;DHT22;14992;50.844;4.418;2023-11-22T03:50:45;7.50;99.90
22337;DHT22;14992;50.844;4.418;2023-11-22T03:53:14;7.50;99.90
22337;DHT22;14992;50.844;4.418;2023-11-22T03:55:43;7.50;99.90
22337;DHT22;14992;50.844;4.418;2023-11-22T03:58:11;7.60;99.90
22337;DHT22;14992;50.844;4.418;2023-11-22T04:00:40;7.60;99.90
22337;DHT22;14992;50.844;4.418;2023-11-22T04:03:09;7.50;99.90
22337;DHT22;14992;50.844;4.418;2023-11-22T04:05:40;7.40;99.90
22337;DHT22;14992;50.844;4.418;2023-11-22T04:08:09;7.20;99.90
22337;DHT22;14992;50.844;4.418;2023-11-22T04:10:38;7.30;99.90
22337;DHT22;14992;50.844;4.418;2023-11-22T04:13:07;7.30;99.90
22337;DHT22;14992;50.844;4.418;2023-11-22T04:15:36;7.30;99.90
22337;DHT22;14992;50.844;4.418;2023-11-22T04:18:05;7.30;99.90
22337;DHT22;14992;50.844;4.418;2023-11-22T04:20:36;7.20;99.90
22337;DHT22;14992;50.844;4.418;2023-11-22T04:23:06;7.20;99.90
22337;DHT22;14992;50.844;4.418;2023-11-22T04:25:38;7.10;99.90
22337;DHT22;14992;50.844;4.418;2023-11-22T04:28:09;7.00;99.90
22337;DHT22;14992;50.844;4.418;2023-11-22T04:30:37;6.80;99.90
22337;DHT22;14992;50.844;4.418;2023-11-22T04:33:06;6.70;99.90
22337;DHT22;14992;50.844;4.418;2023-11-22T04:35:35;6.80;99.90
22337;DHT22;14992;50.844;4.418;2023-11-22T04:38:07;7.00;99.90
22337;DHT22;14992;50.844;4.418;2023-11-22T04:40:37;7.00;99.90
22337;DHT22;14992;50.844;4.418;2023-11-22T04:43:06;6.90;99.90
22337;DHT22;14992;50.844;4.418;2023-11-22T04:45:34;6.90;99.90
22337;DHT22;14992;50.844;4.418;2023-11-22T04:48:04;7.10;99.90
22337;DHT22;14992;50.844;4.418;2023-11-22T04:50:34;7.10;99.90
22337;DHT22;14992;50.844;4.418;2023-11-22T04:53:03;7.00;99.90
22337;DHT22;14992;50.844;4.418;2023-11-22T04:55:33;6.70;99.90
22337;DHT22;14992;50.844;4.418;2023-11-22T04:58:01;6.60;99.90
22337;DHT22;14992;50.844;4.418;2023-11-22T05:00:30;6.50;99.90
22337;DHT22;14992;50.844;4.418;2023-11-22T05:02:59;6.40;99.90
22337;DHT22;14992;50.844;4.418;2023-11-22T05:05:28;6.30;99.90
22337;DHT22;14992;50.844;4.418;2023-11-22T05:07:57;6.40;99.90
22337;DHT22;14992;50.844;4.418;2023-11-22T05:10:25;6.20;99.90
22337;DHT22;14992;50.844;4.418;2023-11-22T05:12:55;6.30;99.90
22337;DHT22;14992;50.844;4.418;2023-11-22T05:15:27;6.50;99.90
22337;DHT22;14992;50.844;4.418;2023-11-22T05:17:56;6.70;99.90
22337;DHT22;14992;50.844;4.418;2023-11-22T05:20:24;6.70;99.90
22337;DHT22;14992;50.844;4.418;2023-11-22T05:22:53;6.70;99.90
22337;DHT22;14992;50.844;4.418;2023-11-22T05:25:22;6.80;99.90
22337;DHT22;14992;50.844;4.418;2023-11-22T05:27:51;6.70;99.90
22337;DHT22;14992;50.844;4.418;2023-11-22T05:30:22;6.70;99.90
22337;DHT22;14992;50.844;4.418;2023-11-22T05:32:51;6.70;99.90
22337;DHT22;14992;50.844;4.418;2023-11-22T05:35:20;6.90;99.90
22337;DHT22;14992;50.844;4.418;2023-11-22T05:37:49;7.00;99.90
22337;DHT22;14992;50.844;4.418;2023-11-22T05:40:17;7.10;99.90
22337;DHT22;14992;50.844;4.418;2023-11-22T05:42:46;7.00;99.90
22337;DHT22;14992;50.844;4.418;2023-11-22T05:45:15;6.90;99.90
22337;DHT22;14992;50.844;4.418;2023-11-22T05:47:45;6.90;99.90
22337;DHT22;14992;50.844;4.418;2023-11-22T05:50:15;6.80;99.90
22337;DHT22;14992;50.844;4.418;2023-11-22T05:52:44;6.80;99.90
22337;DHT22;14992;50.844;4.418;2023-11-22T05:55:13;6.90;99.90
22337;DHT22;14992;50.844;4.418;2023-11-22T05:57:42;6.90;99.90
22337;DHT22;14992;50.844;4.418;2023-11-22T06:00:12;7.00;99.90
22337;DHT22;14992;50.844;4.418;2023-11-22T06:02:41;6.90;99.90
22337;DHT22;14992;50.844;4.418;2023-11-22T06:05:12;6.90;99.90
22337;DHT22;14992;50.844;4.418;2023-11-22T06:07:41;7.00;99.90
22337;DHT22;14992;50.844;4.418;2023-11-22T06:10:09;7.10;99.90
22337;DHT22;14992;50.844;4.418;2023-11-22T06:12:40;7.30;99.90
22337;DHT22;14992;50.844;4.418;2023-11-22T06:15:09;7.20;99.90
22337;DHT22;14992;50.844;4.418;2023-11-22T06:17:38;7.00;99.90
22337;DHT22;14992;50.844;4.418;2023-11-22T06:20:08;6.90;99.90
22337;DHT22;14992;50.844;4.418;2023-11-22T06:22:40;6.90;99.90
22337;DHT22;14992;50.844;4.418;2023-11-22T06:25:09;6.90;99.90
22337;DHT22;14992;50.844;4.418;2023-11-22T06:27:39;6.90;99.90
22337;DHT22;14992;50.844;4.418;2023-11-22T06:30:09;7.00;99.90
22337;DHT22;14992;50.844;4.418;2023-11-22T06:32:37;7.10;99.90
22337;DHT22;14992;50.844;4.418;2023-11-22T06:35:07;7.10;99.90
22337;DHT22;14992;50.844;4.418;2023-11-22T06:37:37;7.00;99.90
22337;DHT22;14992;50.844;4.418;2023-11-22T06:40:09;6.90;99.90
22337;DHT22;14992;50.844;4.418;2023-11-22T06:42:39;6.90;99.90
22337;DHT22;14992;50.844;4.418;2023-11-22T06:45:09;6.80;99.90
22337;DHT22;14992;50.844;4.418;2023-11-22T06:47:40;6.80;99.90
22337;DHT22;14992;50.844;4.418;2023-11-22T06:50:09;6.80;99.90
22337;DHT22;14992;50.844;4.418;2023-11-22T06:52:40;7.00;99.90
22337;DHT22;14992;50.844;4.418;2023-11-22T06:55:10;6.80;99.90
22337;DHT22;14992;50.844;4.418;2023-11-22T06:57:39;6.90;99.90
22337;DHT22;14992;50.844;4.418;2023-11-22T07:00:09;6.90;99.90
22337;DHT22;14992;50.844;4.418;2023-11-22T07:02:39;7.00;99.90
22337;DHT22;14992;50.844;4.418;2023-11-22T07:05:09;7.10;99.90
22337;DHT22;14992;50.844;4.418;2023-11-22T07:07:38;7.30;99.90
22337;DHT22;14992;50.844;4.418;2023-11-22T07:10:09;7.20;99.90
22337;DHT22;14992;50.844;4.418;2023-11-22T07:12:39;7.20;99.90
22337;DHT22;14992;50.844;4.418;2023-11-22T07:15:10;7.20;99.90
22337;DHT22;14992;50.844;4.418;2023-11-22T07:17:39;7.20;99.90
22337;DHT22;14992;50.844;4.418;2023-11-22T07:20:10;7.10;99.90
22337;DHT22;14992;50.844;4.418;2023-11-22T07:22:44;7.10;99.90
22337;DHT22;14992;50.844;4.418;2023-11-22T07:25:14;7.10;99.90
22337;DHT22;14992;50.844;4.418;2023-11-22T07:27:47;7.10;99.90
22337;DHT22;14992;50.844;4.418;2023-11-22T07:30:17;7.20;99.90
22337;DHT22;14992;50.844;4.418;2023-11-22T07:32:47;7.20;99.90
22337;DHT22;14992;50.844;4.418;2023-11-22T07:35:16;7.30;99.90
22337;DHT22;14992;50.844;4.418;2023-11-22T07:37:47;7.30;99.90
22337;DHT22;14992;50.844;4.418;2023-11-22T07:40:20;7.50;99.90
22337;DHT22;14992;50.844;4.418;2023-11-22T07:42:50;7.50;99.90
22337;DHT22;14992;50.844;4.418;2023-11-22T07:45:20;7.60;99.90
22337;DHT22;14992;50.844;4.418;2023-11-22T07:47:50;7.50;99.90
22337;DHT22;14992;50.844;4.418;2023-11-22T07:50:20;7.30;99.90
22337;DHT22;14992;50.844;4.418;2023-11-22T07:52:51;7.40;99.90
22337;DHT22;14992;50.844;4.418;2023-11-22T07:55:22;7.30;99.90
22337;DHT22;14992;50.844;4.418;2023-11-22T07:57:51;7.40;99.90
22337;DHT22;14992;50.844;4.418;2023-11-22T08:00:20;7.30;99.90
22337;DHT22;14992;50.844;4.418;2023-11-22T08:02:50;7.40;99.90
22337;DHT22;14992;50.844;4.418;2023-11-22T08:05:22;7.50;99.90
22337;DHT22;14992;50.844;4.418;2023-11-22T08:07:51;7.50;99.90
22337;DHT22;14992;50.844;4.418;2023-11-22T08:10:22;7.50;99.90
22337;DHT22;14992;50.844;4.418;2023-11-22T08:12:52;7.70;99.90
22337;DHT22;14992;50.844;4.418;2023-11-22T08:15:21;7.70;99.90
22337;DHT22;14992;50.844;4.418;2023-11-22T08:17:50;7.70;99.90
22337;DHT22;14992;50.844;4.418;2023-11-22T08:20:19;7.60;99.90
22337;DHT22;14992;50.844;4.418;2023-11-22T08:22:48;7.40;99.90
22337;DHT22;14992;50.844;4.418;2023-11-22T08:25:18;7.00;99.90
22337;DHT22;14992;50.844;4.418;2023-11-22T08:27:48;6.90;99.90
22337;DHT22;14992;50.844;4.418;2023-11-22T08:30:18;7.10;99.90
22337;DHT22;14992;50.844;4.418;2023-11-22T08:32:47;7.40;99.90
22337;DHT22;14992;50.844;4.418;2023-11-22T08:35:22;7.50;99.90
22337;DHT22;14992;50.844;4.418;2023-11-22T08:37:52;7.70;99.90
22337;DHT22;14992;50.844;4.418;2023-11-22T08:40:21;7.70;99.90
22337;DHT22;14992;50.844;4.418;2023-11-22T08:42:51;7.80;99.90
22337;DHT22;14992;50.844;4.418;2023-11-22T08:45:20;7.90;99.90
22337;DHT22;14992;50.844;4.418;2023-11-22T08:47:49;8.10;99.90
22337;DHT22;14992;50.844;4.418;2023-11-22T08:50:19;8.20;99.90
22337;DHT22;14992;50.844;4.418;2023-11-22T08:52:48;8.30;99.90
22337;DHT22;14992;50.844;4.418;2023-11-22T08:55:21;8.20;99.90
22337;DHT22;14992;50.844;4.418;2023-11-22T08:57:51;8.40;99.90
22337;DHT22;14992;50.844;4.418;2023-11-22T09:00:20;8.40;99.90
22337;DHT22;14992;50.844;4.418;2023-11-22T09:02:50;8.40;99.90
22337;DHT22;14992;50.844;4.418;2023-11-22T09:05:19;8.50;99.90
22337;DHT22;14992;50.844;4.418;2023-11-22T09:07:49;8.50;99.90
22337;DHT22;14992;50.844;4.418;2023-11-22T09:10:18;8.40;99.90
22337;DHT22;14992;50.844;4.418;2023-11-22T09:12:50;8.30;99.90
22337;DHT22;14992;50.844;4.418;2023-11-22T09:15:20;8.30;99.90
22337;DHT22;14992;50.844;4.418;2023-11-22T09:17:54;8.50;99.90
22337;DHT22;14992;50.844;4.418;2023-11-22T09:20:23;8.50;99.90
22337;DHT22;14992;50.844;4.418;2023-11-22T09:22:53;8.40;99.90
22337;DHT22;14992;50.844;4.418;2023-11-22T09:25:23;8.60;99.90
22337;DHT22;14992;50.844;4.418;2023-11-22T09:27:55;8.50;99.90
22337;DHT22;14992;50.844;4.418;2023-11-22T09:30:27;8.60;99.90
22337;DHT22;14992;50.844;4.418;2023-11-22T09:33:06;8.60;99.90
22337;DHT22;14992;50.844;4.418;2023-11-22T09:35:36;8.70;99.90
22337;DHT22;14992;50.844;4.418;2023-11-22T09:38:08;8.90;99.90
22337;DHT22;14992;50.844;4.418;2023-11-22T09:40:41;9.10;99.90
22337;DHT22;14992;50.844;4.418;2023-11-22T09:43:13;9.20;99.90
22337;DHT22;14992;50.844;4.418;2023-11-22T09:45:46;9.30;99.90
22337;DHT22;14992;50.844;4.418;2023-11-22T09:48:22;9.30;99.90
22337;DHT22;14992;50.844;4.418;2023-11-22T09:50:57;9.20;99.90
22337;DHT22;14992;50.844;4.418;2023-11-22T09:53:32;9.30;99.90
22337;DHT22;14992;50.844;4.418;2023-11-22T09:56:03;9.40;99.90
22337;DHT22;14992;50.844;4.418;2023-11-22T09:58:36;9.30;99.90
22337;DHT22;14992;50.844;4.418;2023-11-22T10:01:07;9.30;99.90
22337;DHT22;14992;50.844;4.418;2023-11-22T10:03:39;9.40;99.90
22337;DHT22;14992;50.844;4.418;2023-11-22T10:06:08;9.40;99.90
22337;DHT22;14992;50.844;4.418;2023-11-22T10:08:37;9.40;99.90
22337;DHT22;14992;50.844;4.418;2023-11-22T10:11:06;9.50;99.90
22337;DHT22;14992;50.844;4.418;2023-11-22T10:13:36;9.50;99.90
22337;DHT22;14992;50.844;4.418;2023-11-22T10:16:14;9.70;99.90
22337;DHT22;14992;50.844;4.418;2023-11-22T10:18:44;9.70;99.90
22337;DHT22;14992;50.844;4.418;2023-11-22T10:21:21;9.70;99.90
22337;DHT22;14992;50.844;4.418;2023-11-22T10:23:53;9.60;99.90
22337;DHT22;14992;50.844;4.418;2023-11-22T10:26:24;9.60;99.90
22337;DHT22;14992;50.844;4.418;2023-11-22T10:28:57;9.60;99.90
22337;DHT22;14992;50.844;4.418;2023-11-22T10:31:26;9.40;99.90
22337;DHT22;14992;50.844;4.418;2023-11-22T10:33:56;9.50;99.90
22337;DHT22;14992;50.844;4.418;2023-11-22T10:36:26;9.50;99.90
22337;DHT22;14992;50.844;4.418;2023-11-22T10:38:55;9.50;99.90
22337;DHT22;14992;50.844;4.418;2023-11-22T10:41:25;9.40;99.90
22337;DHT22;14992;50.844;4.418;2023-11-22T10:43:57;9.40;99.90
22337;DHT22;14992;50.844;4.418;2023-11-22T10:46:28;9.50;99.90
22337;DHT22;14992;50.844;4.418;2023-11-22T10:48:58;9.70;99.90
22337;DHT22;14992;50.844;4.418;2023-11-22T10:51:30;9.80;99.90
22337;DHT22;14992;50.844;4.418;2023-11-22T10:54:00;9.80;99.90
22337;DHT22;14992;50.844;4.418;2023-11-22T10:56:36;9.70;99.90
22337;DHT22;14992;50.844;4.418;2023-11-22T10:59:13;9.70;99.90
22337;DHT22;14992;50.844;4.418;2023-11-22T11:01:45;9.70;99.90
22337;DHT22;14992;50.844;4.418;2023-11-22T11:04:20;9.70;99.90
22337;DHT22;14992;50.844;4.418;2023-11-22T11:06:54;9.80;99.90
22337;DHT22;14992;50.844;4.418;2023-11-22T11:09:24;9.80;99.90
22337;DHT22;14992;50.844;4.418;2023-11-22T11:11:59;9.70;99.90
22337;DHT22;14992;50.844;4.418;2023-11-22T11:14:36;9.60;99.90
22337;DHT22;14992;50.844;4.418;2023-11-22T11:17:07;9.60;99.90
22337;DHT22;14992;50.844;4.418;2023-11-22T11:19:37;9.70;99.90
22337;DHT22;14992;50.844;4.418;2023-11-22T11:22:08;9.70;99.90
22337;DHT22;14992;50.844;4.418;2023-11-22T11:24:41;9.80;99.90
22337;DHT22;14992;50.844;4.418;2023-11-22T11:27:12;10.00;99.90
22337;DHT22;14992;50.844;4.418;2023-11-22T11:29:42;10.10;99.90
22337;DHT22;14992;50.844;4.418;2023-11-22T11:32:16;10.10;99.90
22337;DHT22;14992;50.844;4.418;2023-11-22T11:34:58;10.00;99.90
22337;DHT22;14992;50.844;4.418;2023-11-22T11:37:29;10.20;99.90
22337;DHT22;14992;50.844;4.418;2023-11-22T11:39:58;10.30;99.90
22337;DHT22;14992;50.844;4.418;2023-11-22T11:42:27;10.30;99.90
22337;DHT22;14992;50.844;4.418;2023-11-22T11:45:15;10.20;99.90
22337;DHT22;14992;50.844;4.418;2023-11-22T11:47:44;10.10;99.90
22337;DHT22;14992;50.844;4.418;2023-11-22T11:50:14;10.00;99.90
22337;DHT22;14992;50.844;4.418;2023-11-22T11:52:43;10.10;99.90
22337;DHT22;14992;50.844;4.418;2023-11-22T11:55:12;10.30;99.90
22337;DHT22;14992;50.844;4.418;2023-11-22T11:57:41;10.40;99.90
22337;DHT22;14992;50.844;4.418;2023-11-22T12:00:11;10.30;99.90
22337;DHT22;14992;50.844;4.418;2023-11-22T12:02:43;10.30;99.90
22337;DHT22;14992;50.844;4.418;2023-11-22T12:05:11;10.50;99.90
22337;DHT22;14992;50.844;4.418;2023-11-22T12:07:41;10.70;99.90
22337;DHT22;14992;50.844;4.418;2023-11-22T12:10:10;10.90;99.90
22337;DHT22;14992;50.844;4.418;2023-11-22T12:12:43;10.90;99.90
22337;DHT22;14992;50.844;4.418;2023-11-22T12:15:14;11.00;99.90
22337;DHT22;14992;50.844;4.418;2023-11-22T12:17:44;11.10;99.90
22337;DHT22;14992;50.844;4.418;2023-11-22T12:20:14;10.90;99.90
22337;DHT22;14992;50.844;4.418;2023-11-22T12:22:47;10.90;99.90
22337;DHT22;14992;50.844;4.418;2023-11-22T12:25:16;10.80;99.90
22337;DHT22;14992;50.844;4.418;2023-11-22T12:27:45;10.80;99.90
22337;DHT22;14992;50.844;4.418;2023-11-22T12:30:30;10.70;99.90
22337;DHT22;14992;50.844;4.418;2023-11-22T12:33:05;10.70;99.90
22337;DHT22;14992;50.844;4.418;2023-11-22T12:35:35;10.60;99.90
22337;DHT22;14992;50.844;4.418;2023-11-22T12:38:05;10.70;99.90
22337;DHT22;14992;50.844;4.418;2023-11-22T12:40:34;10.50;99.90
22337;DHT22;14992;50.844;4.418;2023-11-22T12:43:04;10.50;99.90
22337;DHT22;14992;50.844;4.418;2023-11-22T12:45:34;10.40;99.90
22337;DHT22;14992;50.844;4.418;2023-11-22T12:48:24;10.30;99.90
22337;DHT22;14992;50.844;4.418;2023-11-22T12:50:57;10.30;99.90
22337;DHT22;14992;50.844;4.418;2023-11-22T12:53:26;10.20;99.90
22337;DHT22;14992;50.844;4.418;2023-11-22T12:55:56;10.10;99.90
22337;DHT22;14992;50.844;4.418;2023-11-22T12:58:25;10.10;99.90
22337;DHT22;14992;50.844;4.418;2023-11-22T13:00:56;10.00;99.90
22337;DHT22;14992;50.844;4.418;2023-11-22T13:03:30;10.10;99.90
22337;DHT22;14992;50.844;4.418;2023-11-22T13:05:59;10.30;99.90
22337;DHT22;14992;50.844;4.418;2023-11-22T13:08:28;10.30;99.90
22337;DHT22;14992;50.844;4.418;2023-11-22T13:10:58;10.20;99.90
22337;DHT22;14992;50.844;4.418;2023-11-22T13:13:27;10.00;99.90
22337;DHT22;14992;50.844;4.418;2023-11-22T13:15:58;9.90;99.90
22337;DHT22;14992;50.844;4.418;2023-11-22T13:18:27;9.80;99.90
22337;DHT22;14992;50.844;4.418;2023-11-22T13:20:58;9.80;99.90
22337;DHT22;14992;50.844;4.418;2023-11-22T13:23:27;9.80;99.90
22337;DHT22;14992;50.844;4.418;2023-11-22T13:25:56;9.80;99.90
22337;DHT22;14992;50.844;4.418;2023-11-22T13:28:24;9.70;99.90
22337;DHT22;14992;50.844;4.418;2023-11-22T13:30:53;9.70;99.90
22337;DHT22;14992;50.844;4.418;2023-11-22T13:33:22;9.70;99.90
22337;DHT22;14992;50.844;4.418;2023-11-22T13:35:51;9.60;99.90
22337;DHT22;14992;50.844;4.418;2023-11-22T13:38:21;9.70;99.90
22337;DHT22;14992;50.844;4.418;2023-11-22T13:40:51;9.70;99.90
22337;DHT22;14992;50.844;4.418;2023-11-22T13:43:20;9.90;99.90
22337;DHT22;14992;50.844;4.418;2023-11-22T13:45:48;10.00;99.90
22337;DHT22;14992;50.844;4.418;2023-11-22T13:48:18;10.00;99.90
22337;DHT22;14992;50.844;4.418;2023-11-22T13:50:47;10.20;99.90
22337;DHT22;14992;50.844;4.418;2023-11-22T13:53:16;10.10;99.90
22337;DHT22;14992;50.844;4.418;2023-11-22T13:55:50;10.00;99.90
22337;DHT22;14992;50.844;4.418;2023-11-22T13:58:21;10.00;99.90
22337;DHT22;14992;50.844;4.418;2023-11-22T14:00:50;10.00;99.90
22337;DHT22;14992;50.844;4.418;2023-11-22T14:03:22;10.00;99.90
22337;DHT22;14992;50.844;4.418;2023-11-22T14:05:51;9.80;99.90
22337;DHT22;14992;50.844;4.418;2023-11-22T14:08:20;9.60;99.90
22337;DHT22;14992;50.844;4.418;2023-11-22T14:10:50;9.50;99.90
22337;DHT22;14992;50.844;4.418;2023-11-22T14:13:19;9.40;99.90
22337;DHT22;14992;50.844;4.418;2023-11-22T14:15:49;9.60;99.90
22337;DHT22;14992;50.844;4.418;2023-11-22T14:18:18;9.80;99.90
22337;DHT22;14992;50.844;4.418;2023-11-22T14:20:47;9.70;99.90
22337;DHT22;14992;50.844;4.418;2023-11-22T14:23:16;9.70;99.90
22337;DHT22;14992;50.844;4.418;2023-11-22T14:25:45;9.70;99.90
22337;DHT22;14992;50.844;4.418;2023-11-22T14:28:16;9.80;99.90
22337;DHT22;14992;50.844;4.418;2023-11-22T14:30:44;9.90;99.90
22337;DHT22;14992;50.844;4.418;2023-11-22T14:33:13;9.90;99.90
22337;DHT22;14992;50.844;4.418;2023-11-22T14:35:44;10.00;99.90
22337;DHT22;14992;50.844;4.418;2023-11-22T14:38:13;10.20;99.90
22337;DHT22;14992;50.844;4.418;2023-11-22T14:40:42;10.20;99.90
22337;DHT22;14992;50.844;4.418;2023-11-22T14:43:11;10.00;99.90
22337;DHT22;14992;50.844;4.418;2023-11-22T14:45:41;10.10;99.90
22337;DHT22;14992;50.844;4.418;2023-11-22T14:48:10;10.10;99.90
22337;DHT22;14992;50.844;4.418;2023-11-22T14:50:43;10.10;99.90
22337;DHT22;14992;50.844;4.418;2023-11-22T14:53:12;9.80;99.90
22337;DHT22;14992;50.844;4.418;2023-11-22T14:55:41;9.70;99.90
22337;DHT22;14992;50.844;4.418;2023-11-22T14:58:11;9.70;99.90
22337;DHT22;14992;50.844;4.418;2023-11-22T15:00:41;9.80;99.90
22337;DHT22;14992;50.844;4.418;2023-11-22T15:03:10;9.60;99.90
22337;DHT22;14992;50.844;4.418;2023-11-22T15:05:40;9.70;99.90
22337;DHT22;14992;50.844;4.418;2023-11-22T15:08:10;9.90;99.90
22337;DHT22;14992;50.844;4.418;2023-11-22T15:10:39;9.90;99.90
22337;DHT22;14992;50.844;4.418;2023-11-22T15:13:08;9.80;99.90
22337;DHT22;14992;50.844;4.418;2023-11-22T15:15:38;9.80;99.90
22337;DHT22;14992;50.844;4.418;2023-11-22T15:18:08;9.90;99.90
22337;DHT22;14992;50.844;4.418;2023-11-22T15:20:38;9.90;99.90
22337;DHT22;14992;50.844;4.418;2023-11-22T15:23:07;9.80;99.90
22337;DHT22;14992;50.844;4.418;2023-11-22T15:25:39;9.70;99.90
22337;DHT22;14992;50.844;4.418;2023-11-22T15:28:09;9.90;99.90
22337;DHT22;14992;50.844;4.418;2023-11-22T15:30:38;9.60;99.90
22337;DHT22;14992;50.844;4.418;2023-11-22T15:33:09;9.50;99.90
22337;DHT22;14992;50.844;4.418;2023-11-22T15:35:38;9.50;99.90
22337;DHT22;14992;50.844;4.418;2023-11-22T15:38:07;9.50;99.90
22337;DHT22;14992;50.844;4.418;2023-11-22T15:40:36;9.50;99.90
22337;DHT22;14992;50.844;4.418;2023-11-22T15:43:07;9.50;99.90
22337;DHT22;14992;50.844;4.418;2023-11-22T15:45:35;9.40;99.90
22337;DHT22;14992;50.844;4.418;2023-11-22T15:48:05;9.50;99.90
22337;DHT22;14992;50.844;4.418;2023-11-22T15:50:35;9.30;99.90
22337;DHT22;14992;50.844;4.418;2023-11-22T15:53:04;9.40;99.90
22337;DHT22;14992;50.844;4.418;2023-11-22T15:55:36;9.50;99.90
22337;DHT22;14992;50.844;4.418;2023-11-22T15:58:05;9.50;99.90
22337;DHT22;14992;50.844;4.418;2023-11-22T16:00:34;9.40;99.90
22337;DHT22;14992;50.844;4.418;2023-11-22T16:03:03;9.40;99.90